Metropolitan Oakland International Airport
KOAK : now visible

Airfield :











YOU CAN JOIN US ON...

 
LOGIN :

Register | Disclaimer

   EN    FR    IT 

 









Legend :    VFR   Marginal VFR   IFR   Intensive IFR   Very Intensive IFR
Visi :
Ceiling :
>= 8 km
>= 3000ft
5 to 8 km
1000 to 3000 ft
1500m to 5 km
500 to 1000 ft
800 to 1500m
200 to 500 ft
< 800m
< 200 ft
Symbols :   Thunderstorms  Fog  Heavy snow  Heavy precipitations  Wind > 20 kt







- Airport Elevation : 9 ft
- IATA code : OAK


KOAK - Metropolitan Oakland International

CURRENT METAR :
  • 230853Z 01003KT 8SM CLR 17/14 A2974 RMK AO2 SLP071 T01670139 58004

EXPIRED METARs :
  • 230753Z 02003KT 8SM CLR 16/12 A2975 RMK AO2 SLP073 T01560122 402720156
  • 230653Z 35004KT 8SM FEW010 17/13 A2976 RMK AO2 SLP075 T01670133

TAF KOAK
Valid from the 23 at 09:00 until the 24 at 12:00 UTC


230907Z 2309/2412 35004KT P6SM FEW010
FM231200 VRB03KT P6SM SCT008
TEMPO 2312/2316 4SM BR BKN006
FM231600 VRB05KT P6SM FEW008
FM232100 29015KT P6SM FEW010
FM240300 29008KT P6SM FEW010
FM240800 29008KT P6SM BKN008
No reported NOTAMs for that airfield.



MET'MAP, your aeronautical weather chart ! - Copyright ORBIFLY December 2007 - Disclaimer

ORBIFLY MET'MAP TEAM :

Programming & Development : Alexandra Zaïnal
Concept & Development : Baudouin d'Aumeries
Co-Development & Prog : Marc-Olivier Méhu
Technical & hardware support : Manuel Goepfert

Contact : metmap@orbifly.com




SOURCES & CREDITS :

   NOAA       Earth
Advisory